Time;durP1;ratioP1;P1;durP2;ratioP2;P2;SDS_P1;SDS_P2;PMS_P1;PMS_P2;Temp;Humidity;BMP_temperature;BMP_pressure;BME280_temperature;BME280_humidity;BME280_pressure;Samples;Min_cycle;Max_cycle;Signal;HPM_P1;HPM_P2
2022/01/06 00:00:12;;;;;;;1.73;0.80;;;21.70;35.70;;;;;;5094743;28;20394;-66
2022/01/06 00:02:39;;;;;;;1.27;0.63;;;21.70;35.70;;;;;;5095957;28;20810;-67
2022/01/06 00:05:05;;;;;;;1.23;0.70;;;21.70;35.70;;;;;;5094548;28;20386;-68
2022/01/06 00:07:32;;;;;;;1.10;0.80;;;21.60;35.70;;;;;;5094171;28;20816;-67
2022/01/06 00:09:59;;;;;;;1.30;0.57;;;21.70;35.70;;;;;;5094052;28;20386;-67
2022/01/06 00:12:33;;;;;;;1.35;0.70;;;21.70;35.70;;;;;;5092955;28;20939;-67
2022/01/06 00:15:08;;;;;;;1.20;0.70;;;21.70;35.80;;;;;;5093169;28;20388;-67
2022/01/06 00:25:32;;;;;;;1.80;0.80;;;21.70;35.80;;;;;;5091822;28;21163;-67
2022/01/06 00:27:57;;;;;;;1.23;0.70;;;21.60;35.70;;;;;;5093380;28;20422;-67
2022/01/06 00:30:23;;;;;;;1.10;0.60;;;21.60;35.60;;;;;;5094138;28;20421;-66
2022/01/06 00:32:48;;;;;;;0.93;0.43;;;21.60;35.70;;;;;;5096292;28;20876;-67
2022/01/06 00:35:14;;;;;;;1.40;0.60;;;21.60;35.60;;;;;;5093964;28;20386;-67
2022/01/06 00:37:39;;;;;;;1.10;0.50;;;21.60;35.60;;;;;;5093514;28;20398;-68
2022/01/06 00:40:06;;;;;;;1.10;0.60;;;21.60;35.60;;;;;;5093571;28;20370;-67
2022/01/06 00:42:32;;;;;;;1.20;0.70;;;21.60;35.60;;;;;;5094463;28;20413;-68
2022/01/06 00:44:57;;;;;;;1.05;0.52;;;21.60;35.60;;;;;;5094188;28;20427;-68
2022/01/06 00:47:23;;;;;;;1.17;0.60;;;21.60;36.20;;;;;;5093632;28;20885;-67
2022/01/06 00:49:49;;;;;;;0.95;0.60;;;21.60;35.50;;;;;;5093134;28;20434;-67
2022/01/06 00:52:14;;;;;;;1.07;0.50;;;21.60;35.50;;;;;;5092907;28;20416;-67
2022/01/06 00:54:40;;;;;;;1.08;0.52;;;21.60;35.50;;;;;;5095445;28;20965;-66
2022/01/06 00:57:06;;;;;;;1.20;0.67;;;21.60;35.50;;;;;;5093814;28;20410;-67
2022/01/06 00:59:31;;;;;;;1.27;0.68;;;21.60;35.50;;;;;;5093641;28;20836;-67
2022/01/06 01:01:57;;;;;;;1.10;0.50;;;21.50;35.50;;;;;;5092920;28;20465;-67
2022/01/06 01:04:23;;;;;;;1.13;0.60;;;21.50;35.40;;;;;;5092165;28;20995;-67
2022/01/06 01:06:49;;;;;;;1.25;0.52;;;21.50;35.40;;;;;;5095359;28;20411;-67
2022/01/06 01:09:14;;;;;;;0.98;0.60;;;21.50;35.40;;;;;;5091987;28;20421;-67
2022/01/06 01:11:40;;;;;;;1.33;0.57;;;21.50;35.40;;;;;;5093077;28;20385;-67
2022/01/06 01:14:25;;;;;;;0.95;0.52;;;21.50;35.20;;;;;;5091489;28;20433;-66
2022/01/06 01:16:56;;;;;;;1.20;0.70;;;21.50;35.40;;;;;;5094504;28;20749;-67
2022/01/06 01:19:23;;;;;;;1.30;0.55;;;21.50;35.50;;;;;;5089277;28;20398;-67
2022/01/06 01:21:49;;;;;;;1.00;0.60;;;21.50;35.50;;;;;;5091876;28;20906;-67
2022/01/06 01:24:15;;;;;;;0.93;0.52;;;21.50;35.40;;;;;;5090975;28;20400;-67
2022/01/06 01:26:41;;;;;;;1.25;0.70;;;21.50;35.40;;;;;;5094863;28;20382;-67
2022/01/06 01:29:13;;;;;;;0.95;0.52;;;21.50;35.40;;;;;;5092136;28;20500;-67
2022/01/06 01:31:44;;;;;;;0.82;0.50;;;21.50;35.40;;;;;;5091664;28;20476;-66
2022/01/06 01:34:10;;;;;;;0.98;0.60;;;21.50;35.40;;;;;;5088726;28;20483;-66
2022/01/06 01:36:36;;;;;;;0.90;0.60;;;21.50;35.40;;;;;;5093998;28;20382;-67
2022/01/06 01:39:02;;;;;;;1.00;0.50;;;21.50;35.30;;;;;;5093791;28;20393;-67
2022/01/06 01:41:28;;;;;;;1.20;0.60;;;21.50;35.30;;;;;;5092954;28;20459;-66
2022/01/06 01:43:55;;;;;;;1.00;0.50;;;21.50;35.40;;;;;;5092196;28;20390;-66
2022/01/06 01:46:28;;;;;;;0.98;0.50;;;21.50;35.40;;;;;;5092887;28;20953;-67
2022/01/06 01:49:14;;;;;;;1.65;0.70;;;21.50;35.30;;;;;;5091211;28;20423;-66
2022/01/06 01:51:41;;;;;;;0.82;0.50;;;21.50;35.30;;;;;;5091298;28;20416;-67
2022/01/06 01:54:07;;;;;;;0.80;0.50;;;21.50;35.30;;;;;;5092329;28;20908;-66
2022/01/06 01:56:33;;;;;;;1.27;0.60;;;21.50;35.20;;;;;;5092859;28;20422;-67
2022/01/06 01:58:59;;;;;;;1.20;0.60;;;21.50;35.20;;;;;;5091664;28;20760;-67
2022/01/06 02:01:24;;;;;;;0.73;0.40;;;21.50;35.30;;;;;;5092497;28;20402;-66
2022/01/06 02:03:51;;;;;;;0.80;0.47;;;21.40;35.10;;;;;;5089272;28;20378;-66
2022/01/06 02:06:18;;;;;;;0.82;0.40;;;21.50;35.20;;;;;;5092434;28;20895;-66
2022/01/06 02:08:43;;;;;;;1.27;0.60;;;21.40;35.10;;;;;;5093113;28;20936;-66
2022/01/06 02:11:09;;;;;;;0.80;0.50;;;21.40;35.20;;;;;;5092578;28;20386;-66
2022/01/06 02:13:48;;;;;;;1.08;0.55;;;21.40;35.10;;;;;;5092481;28;20464;-66
2022/01/06 02:16:18;;;;;;;0.70;0.50;;;21.40;35.10;;;;;;5090217;28;20408;-66
2022/01/06 02:18:43;;;;;;;0.80;0.50;;;21.40;35.10;;;;;;5094723;28;20869;-67
2022/01/06 02:21:09;;;;;;;1.45;0.50;;;21.40;35.10;;;;;;5092268;28;20439;-66
2022/01/06 02:23:35;;;;;;;0.90;0.50;;;21.40;35.10;;;;;;5092103;28;20405;-66
2022/01/06 02:26:00;;;;;;;0.95;0.60;;;21.40;35.10;;;;;;5091282;28;20390;-66
2022/01/06 02:28:26;;;;;;;1.10;0.60;;;21.40;35.10;;;;;;5092201;28;20417;-67
2022/01/06 02:30:54;;;;;;;0.85;0.47;;;21.40;35.10;;;;;;5088598;28;20417;-66
2022/01/06 02:33:21;;;;;;;1.08;0.60;;;21.40;35.10;;;;;;5091133;28;20416;-66
2022/01/06 02:35:48;;;;;;;0.80;0.50;;;21.40;35.70;;;;;;5091858;28;20386;-66
2022/01/06 02:38:14;;;;;;;0.82;0.60;;;21.40;35.10;;;;;;5092268;28;20856;-67
2022/01/06 02:40:40;;;;;;;0.60;0.40;;;21.40;35.10;;;;;;5093852;28;20385;-66
2022/01/06 02:43:07;;;;;;;0.82;0.50;;;21.40;35.10;;;;;;5092784;28;20770;-67
2022/01/06 02:45:34;;;;;;;1.40;0.57;;;21.40;35.10;;;;;;5092136;28;20397;-67
2022/01/06 02:48:05;;;;;;;1.15;0.63;;;21.40;35.10;;;;;;5091791;28;20456;-66
2022/01/06 02:50:31;;;;;;;0.90;0.50;;;21.40;35.10;;;;;;5092503;28;20393;-66
2022/01/06 02:52:57;;;;;;;0.90;0.50;;;21.40;35.10;;;;;;5097934;28;20396;-66
2022/01/06 02:55:22;;;;;;;0.60;0.40;;;21.40;35.10;;;;;;5096098;28;20417;-66
2022/01/06 02:57:48;;;;;;;1.00;0.60;;;21.40;35.10;;;;;;5095757;28;20735;-66
2022/01/06 03:00:15;;;;;;;0.90;0.50;;;21.40;35.10;;;;;;5095903;28;20873;-69
2022/01/06 03:02:43;;;;;;;0.63;0.40;;;21.40;35.10;;;;;;5097973;28;20398;-66
2022/01/06 03:05:09;;;;;;;1.15;0.50;;;21.30;35.00;;;;;;5096106;28;20464;-66
2022/01/06 03:07:35;;;;;;;0.68;0.50;;;21.30;35.00;;;;;;5095467;28;20410;-66
2022/01/06 03:10:03;;;;;;;0.90;0.60;;;21.30;35.00;;;;;;5095193;28;20878;-66
2022/01/06 03:12:34;;;;;;;1.38;0.50;;;21.30;35.00;;;;;;5095904;28;20869;-66
2022/01/06 03:15:01;;;;;;;1.00;0.50;;;21.30;35.00;;;;;;5097227;28;20368;-66
2022/01/06 03:17:27;;;;;;;0.80;0.50;;;21.30;35.00;;;;;;5094279;28;20393;-66
2022/01/06 03:19:52;;;;;;;1.05;0.60;;;21.30;35.00;;;;;;5093808;28;20655;-68
2022/01/06 03:22:18;;;;;;;0.77;0.40;;;21.30;35.00;;;;;;5095661;28;20877;-66
2022/01/06 03:24:44;;;;;;;1.15;0.50;;;21.30;35.00;;;;;;5096120;28;20902;-66
2022/01/06 03:27:10;;;;;;;1.03;0.60;;;21.30;35.00;;;;;;5095284;28;20416;-68
2022/01/06 03:29:35;;;;;;;0.82;0.50;;;21.30;35.00;;;;;;5094056;28;20790;-67
2022/01/06 03:32:01;;;;;;;1.00;0.60;;;21.30;35.00;;;;;;5094861;28;20425;-67
2022/01/06 03:34:31;;;;;;;1.25;0.68;;;21.30;34.90;;;;;;5098219;28;20386;-66
2022/01/06 03:37:01;;;;;;;1.20;0.65;;;21.30;35.00;;;;;;5097090;28;20385;-67
2022/01/06 03:39:27;;;;;;;0.98;0.50;;;21.30;34.90;;;;;;5095370;28;20477;-67
2022/01/06 03:41:53;;;;;;;0.93;0.47;;;21.30;34.90;;;;;;5093412;28;20474;-66
2022/01/06 03:44:18;;;;;;;0.90;0.40;;;21.30;34.90;;;;;;5095361;28;20433;-67
2022/01/06 03:46:44;;;;;;;1.10;0.60;;;21.30;34.90;;;;;;5097534;28;20381;-68
2022/01/06 03:49:10;;;;;;;0.80;0.50;;;21.30;34.90;;;;;;5095183;28;20397;-67
2022/01/06 03:51:36;;;;;;;1.15;0.50;;;21.30;34.90;;;;;;5093690;28;20394;-66
2022/01/06 03:54:01;;;;;;;1.00;0.60;;;21.20;34.80;;;;;;5094452;28;20389;-66
2022/01/06 03:56:27;;;;;;;1.10;0.70;;;21.30;34.90;;;;;;5094567;28;20792;-67
2022/01/06 03:58:52;;;;;;;0.90;0.50;;;21.20;34.60;;;;;;5097362;28;20483;-66
2022/01/06 04:01:18;;;;;;;0.90;0.50;;;21.20;34.90;;;;;;5093482;28;20431;-67
2022/01/06 04:03:47;;;;;;;0.82;0.52;;;21.20;34.70;;;;;;5094706;28;20394;-66
2022/01/06 04:06:16;;;;;;;0.95;0.50;;;21.20;34.80;;;;;;5092020;28;20390;-68
2022/01/06 04:08:42;;;;;;;0.75;0.50;;;21.20;34.80;;;;;;5096796;28;20416;-67
2022/01/06 04:11:07;;;;;;;1.10;0.50;;;21.20;34.90;;;;;;5094881;28;20395;-67
2022/01/06 04:13:34;;;;;;;1.30;0.63;;;21.20;34.80;;;;;;5093284;28;20406;-67
2022/01/06 04:16:02;;;;;;;0.93;0.60;;;21.20;34.80;;;;;;5094212;28;20921;-66
2022/01/06 04:18:29;;;;;;;0.80;0.50;;;21.20;34.80;;;;;;5092900;28;20389;-67
2022/01/06 04:20:54;;;;;;;1.10;0.50;;;21.20;34.60;;;;;;5093542;28;20397;-67
2022/01/06 04:23:20;;;;;;;1.20;0.40;;;21.20;34.80;;;;;;5093563;28;20386;-67
2022/01/06 04:25:46;;;;;;;0.80;0.50;;;21.20;34.80;;;;;;5091912;28;20885;-67
2022/01/06 04:28:11;;;;;;;1.40;0.60;;;21.20;34.80;;;;;;5092865;28;20422;-67
2022/01/06 04:30:37;;;;;;;0.77;0.50;;;21.20;34.70;;;;;;5093392;28;20382;-67
2022/01/06 04:33:03;;;;;;;0.90;0.50;;;21.20;34.80;;;;;;5093232;28;20390;-67
2022/01/06 04:35:28;;;;;;;0.95;0.50;;;21.20;34.80;;;;;;5093208;28;20398;-67
2022/01/06 04:37:54;;;;;;;1.08;0.50;;;21.20;34.60;;;;;;5092677;28;20390;-67
2022/01/06 04:40:20;;;;;;;0.77;0.50;;;21.20;34.70;;;;;;5092905;28;20378;-67
2022/01/06 04:42:45;;;;;;;0.75;0.47;;;21.20;34.60;;;;;;5092723;28;20492;-67
2022/01/06 04:45:11;;;;;;;0.60;0.40;;;21.20;34.60;;;;;;5091725;28;20390;-67
2022/01/06 04:47:37;;;;;;;1.07;0.50;;;21.20;34.70;;;;;;5092936;28;20416;-67
2022/01/06 04:50:03;;;;;;;0.80;0.40;;;21.20;34.70;;;;;;5092516;28;20900;-66
2022/01/06 04:52:28;;;;;;;0.73;0.40;;;21.20;34.60;;;;;;5092937;28;20743;-67
2022/01/06 04:54:54;;;;;;;0.93;0.50;;;21.10;34.60;;;;;;5092836;28;20378;-67
2022/01/06 04:57:20;;;;;;;0.93;0.50;;;21.10;34.50;;;;;;5092892;28;20390;-70
2022/01/06 04:59:45;;;;;;;1.80;0.70;;;21.10;34.60;;;;;;5092723;28;20457;-67
2022/01/06 05:02:11;;;;;;;0.68;0.45;;;21.10;34.50;;;;;;5092291;28;20941;-67
2022/01/06 05:04:37;;;;;;;0.90;0.50;;;21.10;34.50;;;;;;5091414;28;20382;-67
2022/01/06 05:07:03;;;;;;;0.90;0.40;;;21.10;34.50;;;;;;5092388;28;20409;-67
2022/01/06 05:09:28;;;;;;;1.40;0.50;;;21.10;34.50;;;;;;5092656;28;20398;-67
2022/01/06 05:11:54;;;;;;;0.63;0.45;;;21.10;34.50;;;;;;5091445;28;20382;-67
2022/01/06 05:14:20;;;;;;;0.80;0.50;;;21.10;34.40;;;;;;5092455;28;20429;-66
2022/01/06 05:16:45;;;;;;;0.88;0.45;;;21.10;34.50;;;;;;5092462;28;20382;-67
2022/01/06 05:19:11;;;;;;;0.83;0.50;;;21.10;34.50;;;;;;5092426;28;20943;-67
2022/01/06 05:21:37;;;;;;;0.90;0.50;;;21.10;34.50;;;;;;5092362;28;20382;-67
2022/01/06 05:24:10;;;;;;;0.80;0.50;;;21.10;34.40;;;;;;5090559;28;20391;-67
2022/01/06 05:26:38;;;;;;;1.05;0.50;;;21.10;34.10;;;;;;5091040;28;20750;-66
2022/01/06 05:29:05;;;;;;;0.90;0.47;;;21.10;34.20;;;;;;5092100;28;20422;-67
2022/01/06 05:31:31;;;;;;;0.82;0.40;;;21.10;34.20;;;;;;5090969;28;20423;-67
2022/01/06 05:33:56;;;;;;;0.60;0.40;;;21.10;34.30;;;;;;5091666;28;20381;-67
2022/01/06 05:36:22;;;;;;;0.87;0.40;;;21.10;34.30;;;;;;5092260;28;20444;-70
2022/01/06 05:38:48;;;;;;;1.30;0.40;;;21.10;34.40;;;;;;5092086;28;20383;-67
2022/01/06 05:41:13;;;;;;;0.80;0.50;;;21.10;34.40;;;;;;5092033;28;20385;-67
2022/01/06 05:43:39;;;;;;;0.57;0.40;;;21.10;34.40;;;;;;5092035;28;20473;-68
2022/01/06 05:46:05;;;;;;;0.98;0.52;;;21.10;34.30;;;;;;5091506;28;20393;-67
2022/01/06 05:48:30;;;;;;;0.90;0.40;;;21.10;34.40;;;;;;5090636;28;20809;-67
2022/01/06 05:50:56;;;;;;;0.80;0.50;;;21.10;34.30;;;;;;5091906;28;20784;-67
2022/01/06 05:53:22;;;;;;;1.10;0.40;;;21.00;34.40;;;;;;5091932;28;20398;-67
2022/01/06 05:55:47;;;;;;;0.80;0.50;;;21.10;34.30;;;;;;5091789;28;20390;-67
2022/01/06 05:58:13;;;;;;;1.00;0.50;;;21.00;34.20;;;;;;5090072;28;20386;-67
2022/01/06 06:00:39;;;;;;;1.03;0.50;;;21.00;34.20;;;;;;5091922;28;20430;-67
2022/01/06 06:03:05;;;;;;;0.93;0.40;;;21.00;34.20;;;;;;5091774;28;20418;-67
2022/01/06 06:05:30;;;;;;;0.80;0.50;;;21.00;34.10;;;;;;5091723;28;20374;-69
2022/01/06 06:07:56;;;;;;;1.08;0.47;;;21.00;34.20;;;;;;5091281;28;20410;-67
2022/01/06 06:10:21;;;;;;;0.80;0.57;;;21.10;34.30;;;;;;5091757;28;20397;-67
2022/01/06 06:12:52;;;;;;;0.90;0.47;;;21.00;34.20;;;;;;5091596;28;20382;-67
2022/01/06 06:15:21;;;;;;;0.80;0.50;;;21.00;34.20;;;;;;5091698;28;20505;-67
2022/01/06 06:17:47;;;;;;;0.80;0.50;;;21.00;34.20;;;;;;5089853;28;20396;-67
2022/01/06 06:20:12;;;;;;;0.80;0.50;;;21.00;34.00;;;;;;5089884;28;20390;-67
2022/01/06 06:22:38;;;;;;;1.50;0.55;;;21.00;34.10;;;;;;5089323;28;20422;-69
2022/01/06 06:25:05;;;;;;;3.07;0.53;;;21.00;33.90;;;;;;5094100;28;20472;-68
2022/01/06 06:27:30;;;;;;;1.20;0.47;;;21.00;34.40;;;;;;5094829;28;20444;-67
2022/01/06 06:29:56;;;;;;;2.30;0.60;;;21.10;34.80;;;;;;5093479;28;20877;-69
2022/01/06 06:32:22;;;;;;;1.10;0.50;;;21.20;34.80;;;;;;5095085;28;20393;-67
2022/01/06 06:34:47;;;;;;;2.57;0.60;;;21.20;35.20;;;;;;5095037;28;20404;-69
2022/01/06 06:37:13;;;;;;;1.23;0.85;;;21.30;35.00;;;;;;5094933;28;20378;-68
2022/01/06 06:39:39;;;;;;;3.30;1.00;;;21.30;35.10;;;;;;5095037;28;20398;-69
2022/01/06 06:42:04;;;;;;;1.48;0.80;;;21.30;35.90;;;;;;5093253;28;20731;-68
2022/01/06 06:44:30;;;;;;;5.73;1.10;;;21.40;36.20;;;;;;5094813;28;20386;-68
2022/01/06 06:46:56;;;;;;;3.38;1.00;;;21.40;36.00;;;;;;5094737;28;20983;-67
2022/01/06 06:49:22;;;;;;;2.50;0.90;;;21.50;36.20;;;;;;5093820;28;20429;-67
2022/01/06 06:51:47;;;;;;;2.40;0.80;;;21.50;36.40;;;;;;5095065;28;20410;-68
2022/01/06 06:54:13;;;;;;;1.88;0.80;;;21.50;36.30;;;;;;5089811;28;20417;-67
2022/01/06 06:56:42;;;;;;;1.90;0.80;;;21.50;35.90;;;;;;5095108;28;20382;-68
2022/01/06 06:59:09;;;;;;;2.38;0.90;;;21.40;35.80;;;;;;5093664;28;20406;-68
2022/01/06 07:01:35;;;;;;;1.60;0.90;;;21.40;36.00;;;;;;5094885;28;20386;-70
2022/01/06 07:04:00;;;;;;;2.25;0.82;;;21.50;36.50;;;;;;5094273;28;20390;-67
2022/01/06 07:06:26;;;;;;;2.60;1.05;;;21.50;36.00;;;;;;5093770;28;20458;-70
2022/01/06 07:08:52;;;;;;;1.47;0.70;;;21.50;36.00;;;;;;5093402;28;20510;-70
2022/01/06 07:11:17;;;;;;;1.30;0.60;;;21.40;35.70;;;;;;5094859;28;20389;-70
2022/01/06 07:13:43;;;;;;;1.58;0.57;;;21.40;35.70;;;;;;5093235;28;20390;-71
2022/01/06 07:16:09;;;;;;;1.90;0.70;;;21.40;35.30;;;;;;5093878;28;20386;-70
2022/01/06 07:18:35;;;;;;;2.08;0.55;;;21.30;33.60;;;;;;5092821;28;20394;-71
2022/01/06 07:21:00;;;;;;;2.85;0.57;;;21.20;33.50;;;;;;5094007;28;20378;-70
2022/01/06 07:23:26;;;;;;;1.93;0.60;;;21.10;34.20;;;;;;5093119;28;20761;-70
2022/01/06 07:25:52;;;;;;;1.20;0.80;;;21.10;34.40;;;;;;5094254;28;20388;-70
2022/01/06 07:28:17;;;;;;;2.80;1.30;;;21.20;35.30;;;;;;5093594;28;20476;-70
2022/01/06 07:30:43;;;;;;;3.17;1.00;;;21.10;35.20;;;;;;5094245;28;20431;-71
2022/01/06 07:33:09;;;;;;;2.47;0.90;;;21.10;35.50;;;;;;5093032;28;20390;-70
2022/01/06 07:35:35;;;;;;;3.47;0.93;;;21.10;35.60;;;;;;5092313;28;20878;-71
2022/01/06 07:38:00;;;;;;;2.10;1.00;;;21.10;35.20;;;;;;5093586;28;20945;-69
2022/01/06 07:40:26;;;;;;;2.70;0.90;;;21.10;35.10;;;;;;5094131;28;20489;-71
2022/01/06 07:42:52;;;;;;;3.43;0.93;;;21.10;35.40;;;;;;5093950;28;20389;-70
2022/01/06 07:45:19;;;;;;;4.07;1.00;;;21.10;35.30;;;;;;5094151;28;20389;-71
2022/01/06 07:47:56;;;;;;;2.92;1.00;;;21.00;35.60;;;;;;5093978;28;20414;-70
2022/01/06 07:50:25;;;;;;;2.00;0.95;;;21.00;35.50;;;;;;5093867;28;20385;-71
2022/01/06 07:52:51;;;;;;;1.88;0.90;;;21.00;35.80;;;;;;5093196;28;20928;-70
2022/01/06 07:55:17;;;;;;;2.80;1.00;;;21.00;35.50;;;;;;5093452;28;20378;-71
2022/01/06 07:57:43;;;;;;;3.10;0.90;;;21.00;35.80;;;;;;5093826;28;20485;-71
2022/01/06 08:00:09;;;;;;;4.10;0.90;;;21.00;35.80;;;;;;5093269;28;20531;-70
2022/01/06 08:02:34;;;;;;;3.40;1.10;;;20.90;35.90;;;;;;5092602;28;20398;-71
2022/01/06 08:05:00;;;;;;;2.80;0.87;;;20.90;36.00;;;;;;5092407;28;20411;-71
2022/01/06 08:07:25;;;;;;;1.90;0.80;;;21.00;35.90;;;;;;5093440;28;20409;-71
2022/01/06 08:09:51;;;;;;;3.30;0.90;;;21.00;35.80;;;;;;5093318;28;20405;-70
2022/01/06 08:12:17;;;;;;;4.63;0.90;;;21.00;36.20;;;;;;5093128;28;20378;-72
2022/01/06 08:14:42;;;;;;;4.97;0.80;;;21.00;36.40;;;;;;5093434;28;20398;-71
2022/01/06 08:17:08;;;;;;;2.28;0.70;;;21.00;36.60;;;;;;5093406;28;20382;-71
2022/01/06 08:19:34;;;;;;;2.37;0.80;;;21.00;36.60;;;;;;5093454;28;20788;-71
2022/01/06 08:22:00;;;;;;;3.03;0.80;;;21.00;36.20;;;;;;5092934;28;20780;-71
2022/01/06 08:24:26;;;;;;;2.78;0.80;;;21.10;37.50;;;;;;5075109;28;20469;-72
2022/01/06 08:26:51;;;;;;;3.75;0.80;;;21.10;36.60;;;;;;5093468;28;20470;-72
2022/01/06 08:29:17;;;;;;;2.00;0.80;;;21.10;36.90;;;;;;5093479;28;20418;-72
2022/01/06 08:31:42;;;;;;;4.00;0.95;;;21.00;37.30;;;;;;5093208;28;20437;-71
2022/01/06 08:34:08;;;;;;;5.20;0.90;;;21.00;37.10;;;;;;5092583;28;20427;-71
2022/01/06 08:36:34;;;;;;;4.22;0.80;;;21.00;37.80;;;;;;5093185;28;20386;-72
2022/01/06 08:38:59;;;;;;;3.97;0.70;;;21.00;38.40;;;;;;5083451;28;21040;-70
2022/01/06 08:41:25;;;;;;;6.25;0.88;;;21.10;38.70;;;;;;5072845;28;20396;-69
2022/01/06 08:43:51;;;;;;;5.67;1.00;;;21.00;38.30;;;;;;5072399;28;20920;-71
2022/01/06 08:46:16;;;;;;;5.88;0.82;;;21.00;39.00;;;;;;5053731;28;20392;-71
2022/01/06 08:48:42;;;;;;;3.95;0.80;;;21.00;39.10;;;;;;5071778;28;20416;-72
2022/01/06 08:51:08;;;;;;;2.92;0.70;;;21.00;38.60;;;;;;5071769;28;20376;-71
2022/01/06 08:53:33;;;;;;;2.47;0.80;;;21.10;38.80;;;;;;5072385;28;20391;-71
2022/01/06 08:55:59;;;;;;;4.90;0.75;;;21.10;37.60;;;;;;5072370;28;20383;-71
2022/01/06 08:58:25;;;;;;;4.70;0.80;;;21.10;36.60;;;;;;5071995;28;20458;-71
2022/01/06 09:00:50;;;;;;;1.75;0.70;;;21.10;36.70;;;;;;5072435;28;20410;-71
2022/01/06 09:03:16;;;;;;;1.20;0.60;;;21.10;36.60;;;;;;5072107;28;20399;-70
2022/01/06 09:05:42;;;;;;;3.40;0.70;;;21.10;36.60;;;;;;5054461;28;20395;-70
2022/01/06 09:08:08;;;;;;;4.40;1.00;;;21.10;36.70;;;;;;5088840;28;20418;-71
2022/01/06 09:10:34;;;;;;;4.47;0.80;;;21.10;36.60;;;;;;5090968;28;20414;-68
2022/01/06 09:13:04;;;;;;;5.40;0.98;;;21.10;36.60;;;;;;5092058;28;20425;-71
2022/01/06 09:15:30;;;;;;;4.38;0.90;;;21.10;36.60;;;;;;5092126;28;20382;-70
2022/01/06 09:17:57;;;;;;;3.95;1.05;;;21.00;36.60;;;;;;5092129;28;20544;-70
2022/01/06 09:20:23;;;;;;;2.60;1.10;;;21.00;36.50;;;;;;5091778;28;20378;-71
2022/01/06 09:22:49;;;;;;;3.00;1.30;;;21.00;36.40;;;;;;5092187;28;20389;-71
2022/01/06 09:25:16;;;;;;;2.60;1.33;;;21.00;36.40;;;;;;5090886;28;20390;-70
2022/01/06 09:27:43;;;;;;;4.10;1.50;;;21.00;36.40;;;;;;5091663;28;20409;-70
2022/01/06 09:30:10;;;;;;;3.15;1.35;;;21.00;36.30;;;;;;5091437;28;20390;-72
2022/01/06 09:32:36;;;;;;;2.20;1.15;;;21.00;36.30;;;;;;5091941;28;20370;-71
2022/01/06 09:35:03;;;;;;;3.60;1.10;;;21.00;36.20;;;;;;5091069;28;20401;-71
2022/01/06 09:37:28;;;;;;;2.75;1.20;;;21.00;36.20;;;;;;5092001;28;20487;-72
2022/01/06 09:39:54;;;;;;;5.20;1.30;;;21.00;36.10;;;;;;5091709;28;20406;-72
2022/01/06 09:42:20;;;;;;;2.57;1.27;;;21.00;36.10;;;;;;5090899;28;20434;-72
2022/01/06 09:44:48;;;;;;;4.10;1.40;;;21.00;36.00;;;;;;5091744;28;20443;-72
2022/01/06 09:47:15;;;;;;;2.83;1.48;;;21.00;35.90;;;;;;5091281;28;20382;-71
2022/01/06 09:49:44;;;;;;;3.47;1.40;;;21.00;35.90;;;;;;5091563;28;20417;-71
2022/01/06 09:52:11;;;;;;;2.42;1.30;;;21.00;35.90;;;;;;5091072;28;20416;-71
2022/01/06 09:54:38;;;;;;;2.20;1.30;;;21.00;35.80;;;;;;5090488;28;20404;-71
2022/01/06 09:57:05;;;;;;;2.60;1.27;;;21.00;35.80;;;;;;5091569;28;20390;-71
2022/01/06 09:59:31;;;;;;;2.70;1.30;;;21.00;35.80;;;;;;5091327;28;20383;-71
2022/01/06 10:01:58;;;;;;;2.30;1.17;;;21.00;35.70;;;;;;5091462;28;20390;-71
2022/01/06 10:04:29;;;;;;;3.30;1.40;;;21.00;35.70;;;;;;5090966;28;20382;-71
2022/01/06 10:07:04;;;;;;;2.53;1.38;;;21.00;35.70;;;;;;5091215;28;20410;-71
2022/01/06 10:09:34;;;;;;;2.17;1.23;;;21.00;35.60;;;;;;5090977;28;20405;-71
2022/01/06 10:12:03;;;;;;;2.28;1.67;;;21.10;35.70;;;;;;5090133;28;20401;-70
2022/01/06 10:14:46;;;;;;;2.03;1.40;;;21.00;35.50;;;;;;5090008;28;20398;-71
2022/01/06 10:17:27;;;;;;;3.00;1.40;;;21.00;35.50;;;;;;5091449;28;20838;-70
2022/01/06 10:19:54;;;;;;;2.13;1.30;;;21.00;35.50;;;;;;5091265;28;20461;-70
2022/01/06 10:22:21;;;;;;;1.90;1.60;;;21.00;35.50;;;;;;5090902;28;20481;-70
2022/01/06 10:24:49;;;;;;;1.60;1.30;;;21.00;35.50;;;;;;5090094;28;20400;-70
2022/01/06 10:27:20;;;;;;;3.30;1.65;;;21.00;35.40;;;;;;5091340;28;20390;-70
2022/01/06 10:29:49;;;;;;;2.80;1.60;;;21.00;35.50;;;;;;5090160;28;20490;-71
2022/01/06 10:32:21;;;;;;;2.00;1.45;;;21.00;35.40;;;;;;5090759;28;20382;-71
2022/01/06 10:34:52;;;;;;;1.73;1.58;;;21.00;35.40;;;;;;5091328;28;20477;-71
2022/01/06 10:37:21;;;;;;;1.92;1.40;;;21.00;35.30;;;;;;5091289;28;20378;-70
2022/01/06 10:39:49;;;;;;;2.10;1.60;;;21.00;35.30;;;;;;5091199;28;20501;-70
2022/01/06 10:42:15;;;;;;;1.80;1.60;;;21.10;35.30;;;;;;5090571;28;20390;-70
2022/01/06 10:44:55;;;;;;;1.60;1.33;;;21.10;35.30;;;;;;5090446;28;20432;-71
2022/01/06 10:47:40;;;;;;;1.70;1.50;;;21.10;35.90;;;;;;5091070;28;20402;-71
2022/01/06 10:50:14;;;;;;;2.45;1.58;;;21.10;35.30;;;;;;5090753;28;20477;-70
2022/01/06 10:52:46;;;;;;;2.55;1.50;;;21.10;35.30;;;;;;5091233;28;20874;-71
2022/01/06 10:55:18;;;;;;;1.85;1.45;;;21.10;35.20;;;;;;5089740;28;20439;-70
2022/01/06 10:57:50;;;;;;;1.77;1.40;;;21.10;35.20;;;;;;5087129;28;20796;-70
2022/01/06 11:00:18;;;;;;;1.50;1.30;;;21.10;35.20;;;;;;5087738;28;20401;-70
2022/01/06 11:02:43;;;;;;;1.75;1.30;;;21.10;35.20;;;;;;5090539;28;20420;-71
2022/01/06 11:05:09;;;;;;;1.70;1.40;;;21.10;34.90;;;;;;5088226;28;20398;-70
2022/01/06 11:07:35;;;;;;;1.37;1.10;;;21.10;34.80;;;;;;5089550;28;20430;-70
2022/01/06 11:10:13;;;;;;;1.58;1.35;;;21.10;34.50;;;;;;5091368;28;20444;-69
2022/01/06 11:12:39;;;;;;;2.90;1.27;;;21.10;34.80;;;;;;5094891;28;20984;-69
2022/01/06 11:15:05;;;;;;;2.10;1.40;;;21.20;35.00;;;;;;5092318;28;20473;-69
2022/01/06 11:17:31;;;;;;;1.67;1.20;;;21.20;34.90;;;;;;5092207;28;20389;-68
2022/01/06 11:19:57;;;;;;;3.10;1.30;;;21.20;34.90;;;;;;5091569;28;20390;-70
2022/01/06 11:22:25;;;;;;;1.80;1.30;;;21.30;35.00;;;;;;5084361;28;21952;-67
2022/01/06 11:24:53;;;;;;;2.10;1.30;;;21.20;35.10;;;;;;5089649;28;20397;-70
2022/01/06 11:27:36;;;;;;;3.40;1.27;;;21.20;35.30;;;;;;5091843;28;20495;-68
2022/01/06 11:30:37;;;;;;;3.17;1.50;;;21.30;35.60;;;;;;5091761;28;20468;-69
2022/01/06 11:33:03;;;;;;;3.97;1.38;;;21.30;36.10;;;;;;5090733;28;20439;-70
2022/01/06 11:35:29;;;;;;;5.03;1.40;;;21.40;36.10;;;;;;5090087;28;20402;-69
2022/01/06 11:37:56;;;;;;;5.93;1.53;;;21.40;36.80;;;;;;5091310;28;20402;-69
2022/01/06 11:40:35;;;;;;;7.75;1.90;;;21.50;37.30;;;;;;5094056;28;20378;-68
2022/01/06 11:43:01;;;;;;;6.75;2.10;;;21.50;37.30;;;;;;5090097;28;20409;-68
2022/01/06 11:45:27;;;;;;;6.63;2.30;;;21.60;37.90;;;;;;5091449;28;20753;-69
2022/01/06 11:48:05;;;;;;;5.67;2.20;;;21.70;40.10;;;;;;5091458;28;20410;-69
2022/01/06 11:50:46;;;;;;;8.77;2.00;;;21.80;40.10;;;;;;5090651;28;20386;-70
2022/01/06 11:53:12;;;;;;;8.55;1.95;;;21.80;40.10;;;;;;5090767;28;20382;-70
2022/01/06 11:55:41;;;;;;;5.13;1.90;;;21.90;40.20;;;;;;5090154;28;20409;-68
2022/01/06 11:58:16;;;;;;;6.97;2.00;;;21.90;40.80;;;;;;5090750;28;20481;-68
2022/01/06 12:01:00;;;;;;;6.32;1.83;;;21.90;40.30;;;;;;5091084;28;20866;-68
2022/01/06 12:03:41;;;;;;;5.32;2.20;;;22.00;40.10;;;;;;5091170;28;20400;-70
2022/01/06 12:06:09;;;;;;;3.80;1.58;;;22.00;40.00;;;;;;5090840;28;20485;-69
2022/01/06 12:08:40;;;;;;;5.22;1.83;;;22.00;40.10;;;;;;5090869;28;20429;-68
2022/01/06 12:11:09;;;;;;;5.38;1.65;;;21.90;39.80;;;;;;5091257;28;20390;-70
2022/01/06 12:13:46;;;;;;;6.28;1.58;;;22.00;40.00;;;;;;5090973;28;20723;-70
2022/01/06 12:16:12;;;;;;;6.90;1.80;;;22.00;40.10;;;;;;5091185;28;20386;-70
2022/01/06 12:18:37;;;;;;;3.72;1.60;;;22.00;40.10;;;;;;5091677;28;20394;-70
2022/01/06 12:21:03;;;;;;;4.60;1.60;;;22.00;40.10;;;;;;5091001;28;20762;-71
2022/01/06 12:23:29;;;;;;;4.35;1.45;;;22.00;39.70;;;;;;5090798;28;20416;-70
2022/01/06 12:25:57;;;;;;;4.32;1.50;;;22.00;39.60;;;;;;5090934;28;20943;-71
2022/01/06 12:28:24;;;;;;;5.60;1.40;;;22.00;39.20;;;;;;5090823;28;20929;-68
2022/01/06 12:30:50;;;;;;;4.13;1.50;;;22.00;38.80;;;;;;5093678;28;20444;-70
2022/01/06 12:33:20;;;;;;;3.40;1.30;;;22.00;39.00;;;;;;5093822;28;20797;-68
2022/01/06 12:35:51;;;;;;;4.07;1.50;;;22.00;38.40;;;;;;5091416;28;20390;-69
2022/01/06 12:38:25;;;;;;;7.50;1.80;;;21.90;38.50;;;;;;5088043;28;20402;-68
2022/01/06 12:40:51;;;;;;;6.07;1.60;;;21.90;38.30;;;;;;5088887;28;20435;-70
2022/01/06 12:43:25;;;;;;;5.22;1.30;;;21.90;39.80;;;;;;5092121;28;20398;-68
2022/01/06 12:46:05;;;;;;;4.72;1.40;;;21.90;38.90;;;;;;5093492;28;20389;-69
2022/01/06 12:48:38;;;;;;;5.55;1.30;;;21.90;38.70;;;;;;5091345;28;20410;-69
2022/01/06 12:51:04;;;;;;;5.07;1.50;;;21.80;38.40;;;;;;5091217;28;20474;-68
2022/01/06 12:53:41;;;;;;;2.53;1.30;;;21.80;39.40;;;;;;5093067;28;20877;-69
2022/01/06 12:56:08;;;;;;;2.63;1.30;;;21.70;38.50;;;;;;5093320;28;20404;-69